Time;durP1;ratioP1;P1;durP2;ratioP2;P2;SDS_P1;SDS_P2;PMS_P1;PMS_P2;Temp;Humidity;BMP_temperature;BMP_pressure;BME280_temperature;BME280_humidity;BME280_pressure;Samples;Min_cycle;Max_cycle;Signal;HPM_P1;HPM_P2
2024/03/19 06:00:23;;;;;;;22.08;6.93;;;6.70;99.50;;;;;;4959761;23;20086;-74
2024/03/19 06:02:26;;;;;;;21.00;6.82;;;6.70;99.60;;;;;;4037558;29;20048;-80
2024/03/19 06:04:28;;;;;;;46.17;6.47;;;6.70;99.70;;;;;;4039251;29;20048;-81
2024/03/19 06:06:29;;;;;;;10.65;4.65;;;6.70;99.50;;;;;;4039830;29;20049;-81
2024/03/19 06:08:31;;;;;;;16.23;5.97;;;6.80;99.70;;;;;;4039397;29;20052;-79
2024/03/19 06:10:32;;;;;;;9.20;5.68;;;6.80;99.50;;;;;;4039411;29;20049;-81
2024/03/19 06:12:34;;;;;;;18.63;5.50;;;6.90;99.60;;;;;;4039427;29;20049;-80
2024/03/19 06:14:35;;;;;;;45.95;6.65;;;6.90;99.30;;;;;;4039341;29;20081;-80
2024/03/19 06:16:37;;;;;;;22.52;5.80;;;6.90;99.10;;;;;;4039143;29;20057;-81
2024/03/19 06:18:40;;;;;;;16.85;5.15;;;6.90;99.20;;;;;;4039431;29;20057;-80
2024/03/19 06:20:41;;;;;;;15.35;5.43;;;6.90;99.20;;;;;;4039307;29;20053;-81
2024/03/19 06:22:43;;;;;;;10.38;5.47;;;6.90;99.30;;;;;;4039350;29;20501;-81
2024/03/19 06:24:45;;;;;;;12.25;6.22;;;6.90;99.20;;;;;;4022801;29;20572;-81
2024/03/19 06:26:47;;;;;;;13.13;5.72;;;6.90;99.50;;;;;;4039746;29;20064;-82
2024/03/19 06:28:48;;;;;;;8.82;5.43;;;6.90;99.30;;;;;;4040212;29;20483;-81
2024/03/19 06:30:53;;;;;;;7.30;5.03;;;6.90;99.30;;;;;;4039956;29;20057;-82
2024/03/19 06:32:54;;;;;;;8.32;5.10;;;7.00;99.40;;;;;;4039171;29;20534;-81
2024/03/19 06:34:58;;;;;;;8.25;4.70;;;7.00;99.50;;;;;;4039136;29;20056;-79
2024/03/19 06:37:00;;;;;;;6.03;4.38;;;7.00;99.00;;;;;;4039269;29;20132;-81
2024/03/19 06:39:03;;;;;;;6.88;4.30;;;7.00;98.90;;;;;;4037931;29;20471;-80
2024/03/19 06:41:05;;;;;;;6.00;3.80;;;7.00;98.70;;;;;;4039008;29;20128;-81
2024/03/19 06:43:07;;;;;;;8.05;3.78;;;7.00;98.90;;;;;;4039031;29;20054;-81
2024/03/19 06:45:09;;;;;;;9.55;4.20;;;7.00;98.30;;;;;;4039171;29;20053;-81
2024/03/19 06:47:11;;;;;;;6.40;4.00;;;7.00;98.60;;;;;;4038894;29;20135;-80
2024/03/19 06:49:13;;;;;;;12.70;4.85;;;6.90;98.50;;;;;;4038861;29;20479;-80
2024/03/19 06:51:17;;;;;;;14.00;4.43;;;6.90;98.90;;;;;;4038847;29;20057;-81
2024/03/19 06:53:18;;;;;;;8.60;4.53;;;6.80;99.20;;;;;;4038747;29;20049;-80
2024/03/19 06:55:20;;;;;;;8.50;4.97;;;6.90;99.10;;;;;;4038763;29;20053;-81
2024/03/19 06:57:21;;;;;;;9.38;4.97;;;6.90;99.00;;;;;;4038844;29;20071;-80
2024/03/19 06:59:27;;;;;;;10.32;5.30;;;7.00;99.20;;;;;;4042633;29;20057;-80
2024/03/19 07:01:29;;;;;;;9.07;5.50;;;7.00;99.30;;;;;;4044264;29;20068;-80
2024/03/19 07:03:31;;;;;;;17.55;6.80;;;7.10;99.40;;;;;;4042504;29;20057;-79
2024/03/19 07:05:33;;;;;;;23.75;7.57;;;7.00;99.70;;;;;;4042933;29;20067;-80
2024/03/19 07:07:36;;;;;;;23.38;7.78;;;6.90;99.90;;;;;;4044602;29;20049;-80
2024/03/19 07:09:38;;;;;;;17.13;7.32;;;6.80;99.90;;;;;;4041703;29;20507;-80
2024/03/19 07:11:40;;;;;;;12.93;6.82;;;6.80;99.90;;;;;;4040489;29;20052;-79
2024/03/19 07:13:42;;;;;;;17.08;7.60;;;6.80;99.90;;;;;;4040923;29;20478;-79
2024/03/19 07:15:44;;;;;;;12.40;7.13;;;6.90;99.90;;;;;;4041375;29;20483;-79
2024/03/19 07:17:49;;;;;;;19.90;7.28;;;6.90;99.90;;;;;;4042232;29;20060;-80
2024/03/19 07:19:50;;;;;;;17.05;7.43;;;7.10;99.90;;;;;;4040617;29;20061;-81
2024/03/19 07:21:52;;;;;;;19.58;7.55;;;7.10;99.90;;;;;;4040410;29;20398;-78
2024/03/19 07:23:57;;;;;;;14.27;7.50;;;7.10;99.90;;;;;;4039687;29;20117;-78
2024/03/19 07:25:59;;;;;;;10.82;6.40;;;7.10;99.90;;;;;;4040577;29;20126;-80
2024/03/19 07:28:01;;;;;;;11.05;6.63;;;7.30;99.90;;;;;;4039563;29;20069;-78
2024/03/19 07:30:03;;;;;;;12.32;6.50;;;7.40;99.90;;;;;;4040178;29;20061;-80
2024/03/19 07:32:09;;;;;;;11.07;6.75;;;7.40;99.90;;;;;;4043939;29;20049;-82
2024/03/19 07:34:11;;;;;;;10.45;6.47;;;7.40;99.90;;;;;;4042008;29;20052;-79
2024/03/19 07:36:13;;;;;;;8.73;6.35;;;7.40;99.90;;;;;;4041832;29;20045;-80
2024/03/19 07:38:15;;;;;;;8.75;6.57;;;7.50;99.90;;;;;;4040781;29;20515;-82
2024/03/19 07:40:20;;;;;;;10.18;5.72;;;7.60;99.90;;;;;;4039951;29;20045;-80
2024/03/19 07:42:22;;;;;;;9.73;6.43;;;7.70;99.90;;;;;;4040317;29;20116;-79
2024/03/19 07:44:24;;;;;;;8.05;5.30;;;7.80;99.90;;;;;;4040506;29;20148;-82
2024/03/19 07:46:26;;;;;;;7.68;5.43;;;7.90;99.90;;;;;;4042690;29;20057;-82
2024/03/19 07:48:28;;;;;;;8.82;6.13;;;8.10;99.90;;;;;;4040757;29;20048;-78
2024/03/19 07:50:30;;;;;;;8.32;6.00;;;8.10;99.90;;;;;;4040155;29;20056;-80
2024/03/19 07:52:32;;;;;;;7.85;5.40;;;8.20;99.90;;;;;;4040400;29;20060;-80
2024/03/19 07:54:33;;;;;;;7.45;5.22;;;8.30;99.90;;;;;;4040643;29;20499;-78
2024/03/19 07:56:40;;;;;;;7.78;5.20;;;8.40;99.90;;;;;;4039498;29;20469;-79
2024/03/19 07:58:42;;;;;;;6.43;4.80;;;8.40;99.90;;;;;;4042466;29;20067;-80
2024/03/19 08:00:44;;;;;;;6.50;4.80;;;8.50;99.90;;;;;;4044313;29;20140;-79
2024/03/19 08:02:46;;;;;;;7.63;5.18;;;8.50;99.90;;;;;;4047932;29;20052;-80
2024/03/19 08:04:49;;;;;;;5.53;4.18;;;8.60;99.90;;;;;;4046775;29;20116;-81
2024/03/19 08:06:51;;;;;;;6.50;4.55;;;8.60;99.90;;;;;;4047074;29;20060;-81
2024/03/19 08:08:53;;;;;;;7.38;5.35;;;8.60;99.90;;;;;;4047428;29;20081;-80
2024/03/19 08:10:56;;;;;;;6.80;5.13;;;8.60;99.90;;;;;;4048514;29;20078;-80
2024/03/19 08:13:00;;;;;;;6.95;5.20;;;8.60;99.90;;;;;;4046278;29;20449;-82
2024/03/19 08:15:03;;;;;;;6.53;4.70;;;8.50;99.90;;;;;;4046665;29;20039;-80
2024/03/19 08:17:05;;;;;;;6.30;4.72;;;8.60;99.90;;;;;;4050851;29;20061;-80
2024/03/19 08:19:08;;;;;;;7.22;4.80;;;8.60;99.90;;;;;;4044316;29;20053;-81
2024/03/19 08:21:10;;;;;;;6.85;4.97;;;8.60;99.90;;;;;;4040276;29;20049;-80
2024/03/19 08:23:13;;;;;;;7.15;4.85;;;8.70;99.90;;;;;;4042955;29;20405;-78
2024/03/19 08:25:18;;;;;;;7.43;5.30;;;8.70;99.90;;;;;;4042708;29;20052;-79
2024/03/19 08:27:21;;;;;;;7.15;5.10;;;8.80;99.90;;;;;;4043932;29;20053;-80
2024/03/19 08:29:25;;;;;;;7.32;5.35;;;8.80;99.90;;;;;;4040987;29;20060;-80
2024/03/19 08:31:26;;;;;;;8.45;5.93;;;9.00;99.90;;;;;;4041874;29;20057;-78
2024/03/19 08:33:28;;;;;;;8.02;5.90;;;9.10;99.90;;;;;;4042745;29;20092;-77
2024/03/19 08:35:30;;;;;;;7.00;5.65;;;9.20;99.90;;;;;;4043504;29;20104;-78
2024/03/19 08:37:32;;;;;;;7.75;5.55;;;9.20;99.90;;;;;;4041712;29;20053;-80
2024/03/19 08:39:34;;;;;;;7.85;6.30;;;9.20;99.90;;;;;;4025991;29;20552;-77
2024/03/19 08:41:36;;;;;;;9.63;5.93;;;9.10;99.90;;;;;;4025103;29;20415;-80
2024/03/19 08:43:38;;;;;;;8.13;5.95;;;9.10;99.90;;;;;;4023511;29;20385;-79
2024/03/19 08:45:41;;;;;;;8.57;5.97;;;9.20;99.90;;;;;;4027085;29;20057;-79
2024/03/19 08:47:43;;;;;;;7.50;5.72;;;9.30;99.90;;;;;;4023174;29;20057;-79
2024/03/19 08:49:44;;;;;;;9.27;5.90;;;9.40;99.90;;;;;;4023209;29;20496;-78
2024/03/19 08:51:46;;;;;;;8.35;5.60;;;9.60;99.90;;;;;;4030248;29;20089;-81
2024/03/19 08:53:48;;;;;;;8.77;6.45;;;9.60;99.90;;;;;;4043337;29;20072;-79
2024/03/19 08:55:55;;;;;;;8.30;5.82;;;9.60;99.90;;;;;;4045273;29;20052;-81
2024/03/19 08:57:58;;;;;;;7.32;5.13;;;9.50;99.90;;;;;;4050677;29;20060;-78
2024/03/19 09:00:00;;;;;;;8.45;5.50;;;9.70;99.90;;;;;;4051098;29;20061;-80
2024/03/19 09:02:04;;;;;;;7.40;5.55;;;9.80;99.70;;;;;;4052646;29;20052;-79
2024/03/19 09:04:08;;;;;;;8.23;5.75;;;10.00;99.30;;;;;;4049536;29;20152;-78
2024/03/19 09:06:11;;;;;;;8.75;5.93;;;9.90;99.10;;;;;;4051884;29;20049;-79
2024/03/19 09:08:14;;;;;;;7.53;5.80;;;9.90;99.40;;;;;;4052481;29;20057;-78
2024/03/19 09:10:17;;;;;;;6.65;5.00;;;10.10;99.30;;;;;;4049830;29;20140;-79
2024/03/19 09:12:20;;;;;;;7.80;5.85;;;10.20;99.10;;;;;;4049320;29;20482;-79
2024/03/19 09:14:21;;;;;;;8.38;5.88;;;10.20;99.30;;;;;;4050494;29;20064;-78
2024/03/19 09:16:25;;;;;;;7.78;6.07;;;10.10;99.70;;;;;;4047488;29;20074;-79
2024/03/19 09:18:30;;;;;;;7.95;6.10;;;10.20;99.90;;;;;;4049392;29;20092;-79
2024/03/19 09:20:34;;;;;;;7.80;5.63;;;10.30;99.90;;;;;;4045845;29;20388;-79
2024/03/19 09:22:35;;;;;;;6.90;5.00;;;10.40;99.70;;;;;;4045542;29;20057;-79
2024/03/19 09:24:38;;;;;;;6.93;5.10;;;10.60;99.60;;;;;;4046557;29;20057;-80
2024/03/19 09:26:40;;;;;;;9.52;6.13;;;10.70;99.80;;;;;;4044793;29;20491;-78
2024/03/19 09:28:43;;;;;;;9.63;6.63;;;10.80;99.60;;;;;;4045009;29;20483;-79
2024/03/19 09:30:44;;;;;;;9.35;6.07;;;10.80;99.80;;;;;;4045570;29;20053;-78
2024/03/19 09:32:47;;;;;;;7.75;5.85;;;10.90;99.70;;;;;;4046054;29;20060;-80
2024/03/19 09:34:50;;;;;;;9.20;6.18;;;11.00;99.20;;;;;;4046136;29;20451;-78
2024/03/19 09:36:53;;;;;;;8.40;5.55;;;11.10;99.20;;;;;;4046026;29;20135;-81
2024/03/19 09:38:56;;;;;;;7.50;5.60;;;11.10;98.90;;;;;;4045847;29;20519;-80
2024/03/19 09:41:05;;;;;;;7.05;5.05;;;11.20;98.90;;;;;;4046161;29;20472;-79
2024/03/19 09:43:11;;;;;;;8.02;5.50;;;11.40;98.50;;;;;;4045205;29;20059;-79
2024/03/19 09:45:25;;;;;;;;;;;11.50;98.60;;;;;;4043751;29;20064;-78
2024/03/19 09:47:29;;;;;;;8.90;5.68;;;11.50;98.70;;;;;;4044412;29;20353;-80
2024/03/19 09:49:34;;;;;;;7.22;5.43;;;11.70;98.90;;;;;;4042013;29;20093;-77
2024/03/19 09:51:40;;;;;;;7.78;5.30;;;11.70;98.20;;;;;;4042418;29;20137;-79
2024/03/19 09:53:43;;;;;;;7.68;5.32;;;11.70;97.80;;;;;;4043442;29;20117;-81
2024/03/19 09:55:45;;;;;;;6.97;5.40;;;11.80;98.00;;;;;;4044599;29;20052;-79
2024/03/19 09:57:49;;;;;;;8.40;5.60;;;11.80;98.20;;;;;;4046169;29;20076;-78
2024/03/19 09:59:52;;;;;;;8.13;5.25;;;11.70;98.20;;;;;;4046444;29;20122;-80
2024/03/19 10:01:55;;;;;;;8.60;5.18;;;11.80;98.50;;;;;;4047033;29;20057;-81
2024/03/19 10:03:58;;;;;;;9.10;4.78;;;11.90;98.00;;;;;;4047672;29;20136;-79
2024/03/19 10:06:01;;;;;;;6.70;4.55;;;11.90;97.90;;;;;;4049767;29;20085;-80
2024/03/19 10:08:07;;;;;;;7.80;4.78;;;12.00;97.30;;;;;;4051855;29;20136;-79
2024/03/19 10:10:14;;;;;;;6.20;4.72;;;12.10;96.90;;;;;;4049125;29;20083;-79
2024/03/19 10:12:17;;;;;;;5.43;4.18;;;12.10;97.10;;;;;;4047941;29;20052;-81
2024/03/19 10:14:23;;;;;;;6.40;4.63;;;12.10;96.40;;;;;;4031004;29;20594;-81
2024/03/19 10:16:27;;;;;;;6.55;4.35;;;12.00;96.40;;;;;;4047016;29;20057;-80
2024/03/19 10:18:30;;;;;;;6.28;4.10;;;12.00;97.00;;;;;;4050016;29;20056;-81
2024/03/19 10:20:36;;;;;;;6.15;4.38;;;12.10;96.40;;;;;;4033805;29;20045;-79
2024/03/19 10:22:41;;;;;;;6.05;4.20;;;12.10;96.20;;;;;;4050104;29;20056;-81
2024/03/19 10:24:51;;;;;;;6.20;3.92;;;12.10;96.20;;;;;;4050325;29;20069;-81
2024/03/19 10:26:54;;;;;;;7.15;4.70;;;12.20;95.90;;;;;;4050365;29;20060;-80
2024/03/19 10:28:58;;;;;;;5.40;3.75;;;12.20;95.90;;;;;;4048248;29;20479;-81
2024/03/19 10:31:01;;;;;;;6.90;4.20;;;12.30;96.00;;;;;;4047983;29;20053;-80
2024/03/19 10:33:09;;;;;;;5.47;3.75;;;12.30;96.20;;;;;;4046919;29;20048;-78
2024/03/19 10:35:19;;;;;;;6.30;4.07;;;12.30;95.90;;;;;;4048000;29;20073;-80
2024/03/19 10:37:21;;;;;;;7.20;4.07;;;12.40;96.10;;;;;;4045558;29;20060;-83
2024/03/19 10:39:25;;;;;;;5.38;3.53;;;12.30;95.90;;;;;;4046346;29;20057;-80
2024/03/19 10:41:29;;;;;;;5.70;3.75;;;12.20;95.50;;;;;;4046583;29;20053;-82
2024/03/19 10:43:34;;;;;;;5.97;3.80;;;12.10;95.50;;;;;;4047063;29;20049;-80
2024/03/19 10:45:37;;;;;;;6.28;4.20;;;12.00;95.50;;;;;;4044376;29;20147;-78
2024/03/19 10:47:39;;;;;;;5.35;3.58;;;11.90;95.60;;;;;;4045853;29;20056;-80
2024/03/19 10:49:42;;;;;;;6.47;4.00;;;11.90;95.60;;;;;;4046831;29;20049;-79
2024/03/19 10:51:46;;;;;;;6.78;3.60;;;11.90;95.50;;;;;;4046640;29;20056;-77
2024/03/19 10:53:49;;;;;;;5.28;3.45;;;12.00;95.80;;;;;;4046637;29;20138;-77
2024/03/19 10:55:57;;;;;;;5.15;3.15;;;12.10;95.80;;;;;;4047051;29;20558;-81
2024/03/19 10:58:07;;;;;;;4.38;3.00;;;12.10;95.80;;;;;;4046615;29;20055;-80
2024/03/19 11:00:23;;;;;;;4.80;3.03;;;12.10;95.30;;;;;;4048464;29;20522;-80
2024/03/19 11:02:30;;;;;;;4.78;2.90;;;12.20;94.90;;;;;;4049897;29;20088;-81
2024/03/19 11:04:32;;;;;;;5.60;3.05;;;12.20;95.10;;;;;;4028945;29;20085;-81
2024/03/19 11:06:33;;;;;;;4.47;2.80;;;12.20;95.00;;;;;;4048266;29;20053;-80
2024/03/19 11:08:42;;;;;;;5.05;3.03;;;12.30;95.40;;;;;;4046681;29;20049;-81
2024/03/19 11:10:46;;;;;;;6.05;2.83;;;12.40;95.00;;;;;;4047210;29;20057;-80
2024/03/19 11:12:48;;;;;;;5.00;2.63;;;12.50;94.90;;;;;;4045301;29;20060;-80
2024/03/19 11:14:57;;;;;;;4.00;2.30;;;12.60;94.60;;;;;;4044492;29;20510;-80
2024/03/19 11:17:03;;;;;;;5.35;2.50;;;12.70;94.80;;;;;;4046186;29;20053;-81
2024/03/19 11:22:10;;;;;;;4.03;2.35;;;12.80;93.90;;;;;;4270332;27;20380;-80
2024/03/19 11:24:26;;;;;;;5.65;2.50;;;12.90;93.70;;;;;;4271173;27;20049;-79
2024/03/19 11:26:29;;;;;;;5.45;2.65;;;12.90;94.00;;;;;;4269268;27;20074;-81
2024/03/19 11:28:33;;;;;;;3.95;2.50;;;13.10;94.50;;;;;;4266359;27;20052;-81
2024/03/19 11:30:46;;;;;;;3.80;2.22;;;13.10;93.70;;;;;;4254652;28;20076;-79
2024/03/19 11:32:49;;;;;;;5.47;2.20;;;13.10;92.90;;;;;;4255098;27;20043;-81
2024/03/19 11:34:52;;;;;;;4.85;2.17;;;13.20;93.60;;;;;;4272199;27;20070;-80
2024/03/19 11:36:55;;;;;;;4.00;2.30;;;13.20;92.90;;;;;;4272843;27;20141;-80
2024/03/19 11:39:00;;;;;;;4.00;2.33;;;13.40;92.40;;;;;;4275282;27;20072;-80
2024/03/19 11:41:04;;;;;;;3.53;2.17;;;13.40;92.40;;;;;;4256194;28;20118;-80
2024/03/19 11:43:08;;;;;;;4.05;2.08;;;13.50;92.40;;;;;;4273868;27;20043;-80
2024/03/19 11:45:16;;;;;;;4.10;2.53;;;13.60;92.30;;;;;;4273904;27;20109;-81
2024/03/19 11:47:19;;;;;;;4.45;2.17;;;13.70;92.90;;;;;;4274104;27;20103;-78
2024/03/19 11:49:26;;;;;;;4.55;2.30;;;13.80;92.90;;;;;;4273131;27;20050;-79
2024/03/19 11:51:29;;;;;;;5.68;2.60;;;14.00;92.50;;;;;;4252631;28;20043;-80
2024/03/19 11:53:35;;;;;;;4.80;2.40;;;14.10;91.90;;;;;;4280153;27;20043;-78
2024/03/19 11:55:42;;;;;;;4.80;2.53;;;14.20;92.30;;;;;;4277558;27;20047;-79
2024/03/19 11:57:45;;;;;;;;;;;14.30;92.20;;;;;;4259910;27;20491;-79
2024/03/19 11:59:47;;;;;;;3.70;2.10;;;14.40;92.40;;;;;;4253435;28;19926;-79
2024/03/19 12:01:51;;;;;;;4.30;2.08;;;14.50;91.80;;;;;;4258338;27;20047;-78
2024/03/19 12:03:54;;;;;;;3.83;1.90;;;14.60;90.60;;;;;;4268604;27;20039;-79
2024/03/19 12:05:57;;;;;;;4.03;1.80;;;14.60;90.50;;;;;;4264486;27;20110;-79
2024/03/19 12:08:01;;;;;;;5.70;1.85;;;14.80;90.20;;;;;;4252971;27;20089;-79
2024/03/19 12:10:14;;;;;;;4.35;1.80;;;14.90;90.20;;;;;;4270515;27;20130;-79
2024/03/19 12:12:20;;;;;;;3.50;1.73;;;15.00;87.70;;;;;;4271552;27;20053;-80
2024/03/19 12:14:23;;;;;;;3.35;1.73;;;15.00;87.60;;;;;;4228872;28;20112;-80
2024/03/19 12:16:30;;;;;;;3.67;1.80;;;15.00;87.00;;;;;;4264511;27;20043;-78
2024/03/19 12:18:36;;;;;;;3.33;1.73;;;15.20;87.40;;;;;;4262913;27;20054;-78
2024/03/19 12:20:39;;;;;;;3.83;1.67;;;15.40;85.80;;;;;;4252555;28;20047;-78
2024/03/19 12:22:40;;;;;;;3.53;1.77;;;15.40;85.70;;;;;;4255944;27;20051;-78
2024/03/19 12:24:45;;;;;;;2.72;1.38;;;15.60;82.70;;;;;;4254556;27;20116;-77
2024/03/19 12:26:49;;;;;;;2.95;1.20;;;15.70;81.60;;;;;;4252439;28;20044;-78
2024/03/19 12:28:54;;;;;;;3.35;1.45;;;15.80;80.90;;;;;;4252039;28;20043;-77
2024/03/19 12:30:58;;;;;;;2.75;1.02;;;15.90;78.90;;;;;;4250510;28;20055;-78
2024/03/19 12:33:10;;;;;;;2.47;0.90;;;16.10;78.00;;;;;;4239782;28;20050;-78
2024/03/19 12:35:13;;;;;;;2.63;1.20;;;16.30;77.90;;;;;;4240082;28;20054;-79
2024/03/19 12:37:18;;;;;;;2.88;1.23;;;16.50;76.30;;;;;;4241581;28;20116;-79
2024/03/19 12:39:21;;;;;;;1.93;0.83;;;16.70;76.10;;;;;;4235771;28;20461;-78
2024/03/19 12:41:22;;;;;;;2.65;1.10;;;16.70;71.00;;;;;;4250837;27;20077;-79
2024/03/19 12:43:24;;;;;;;2.97;0.80;;;16.80;70.40;;;;;;4251941;27;20039;-79
2024/03/19 12:45:27;;;;;;;3.47;0.93;;;17.00;69.60;;;;;;4251084;27;20047;-79
2024/03/19 12:47:29;;;;;;;1.80;0.80;;;17.00;67.50;;;;;;4252198;27;20044;-82
2024/03/19 12:49:31;;;;;;;3.10;1.20;;;16.90;68.50;;;;;;4251377;27;20051;-78
2024/03/19 12:51:33;;;;;;;2.40;0.88;;;17.20;69.60;;;;;;4251784;27;20051;-76
2024/03/19 12:53:35;;;;;;;2.03;0.80;;;17.40;68.40;;;;;;4251501;27;20043;-76
2024/03/19 12:55:37;;;;;;;4.95;1.30;;;17.50;66.50;;;;;;4250644;27;20043;-74
2024/03/19 12:57:39;;;;;;;2.58;1.08;;;17.60;67.50;;;;;;4250300;27;20047;-73
2024/03/19 12:59:42;;;;;;;3.15;1.10;;;17.80;69.70;;;;;;4250429;27;20477;-75
2024/03/19 13:01:46;;;;;;;3.42;1.20;;;17.90;65.80;;;;;;4250116;27;20047;-75
2024/03/19 13:03:47;;;;;;;2.95;1.08;;;18.00;64.80;;;;;;4250301;27;20108;-76
2024/03/19 13:05:50;;;;;;;3.17;1.05;;;18.20;62.00;;;;;;4248485;27;20047;-74
2024/03/19 13:07:53;;;;;;;3.63;1.00;;;18.40;62.10;;;;;;4249912;27;20047;-76
2024/03/19 13:09:54;;;;;;;2.40;1.00;;;18.50;61.00;;;;;;4250209;27;20043;-76
2024/03/19 13:11:57;;;;;;;2.53;1.10;;;18.70;60.50;;;;;;4250273;27;20089;-74
2024/03/19 13:13:58;;;;;;;3.10;1.00;;;18.60;59.20;;;;;;4239787;27;20489;-74
2024/03/19 13:16:00;;;;;;;3.05;1.00;;;18.90;59.60;;;;;;4233032;28;20378;-75
2024/03/19 13:18:04;;;;;;;2.58;1.15;;;19.10;59.60;;;;;;4233000;28;20051;-75
2024/03/19 13:20:09;;;;;;;2.50;0.90;;;19.30;58.50;;;;;;4232881;28;20058;-75
2024/03/19 13:22:10;;;;;;;2.53;1.00;;;19.40;57.70;;;;;;4232948;28;20120;-74
2024/03/19 13:24:12;;;;;;;2.45;1.05;;;19.50;57.30;;;;;;4232848;28;20477;-76
2024/03/19 13:26:13;;;;;;;3.13;1.02;;;19.80;56.00;;;;;;4233436;28;20051;-74
2024/03/19 13:28:16;;;;;;;1.92;0.80;;;20.00;57.30;;;;;;4232195;28;20105;-75
2024/03/19 13:30:18;;;;;;;3.67;0.90;;;20.20;58.10;;;;;;4248499;27;20043;-75
2024/03/19 13:32:20;;;;;;;2.00;1.00;;;20.30;57.00;;;;;;4249255;27;20055;-75
2024/03/19 13:34:23;;;;;;;3.10;1.20;;;20.40;57.40;;;;;;4250347;27;20111;-74
2024/03/19 13:36:25;;;;;;;3.08;1.20;;;20.60;57.90;;;;;;4250294;27;20051;-75
2024/03/19 13:38:28;;;;;;;3.58;1.30;;;20.80;57.20;;;;;;4250516;27;20047;-75
2024/03/19 13:40:32;;;;;;;4.00;1.00;;;21.00;55.70;;;;;;4250263;27;20047;-76
2024/03/19 13:42:34;;;;;;;2.65;1.25;;;21.10;56.30;;;;;;4250547;27;20134;-73
2024/03/19 13:44:35;;;;;;;4.15;1.30;;;21.30;54.50;;;;;;4253334;27;20051;-76
2024/03/19 13:46:37;;;;;;;3.60;1.20;;;21.40;53.80;;;;;;4252067;27;20479;-75
2024/03/19 13:48:39;;;;;;;3.40;1.40;;;21.50;54.10;;;;;;4250152;27;20415;-73
2024/03/19 13:50:42;;;;;;;3.25;1.40;;;21.70;52.80;;;;;;4250237;27;20074;-73
2024/03/19 13:52:44;;;;;;;2.15;0.90;;;21.70;51.00;;;;;;4250365;27;20047;-74
2024/03/19 13:54:45;;;;;;;3.42;1.20;;;22.00;52.10;;;;;;4250632;27;20051;-76
2024/03/19 13:56:49;;;;;;;4.10;1.40;;;22.20;52.30;;;;;;4250157;27;20039;-77
2024/03/19 13:58:51;;;;;;;3.25;1.48;;;22.20;50.60;;;;;;4249933;27;20126;-74
2024/03/19 14:00:54;;;;;;;3.15;1.00;;;22.10;50.10;;;;;;4250058;27;20400;-74
2024/03/19 14:02:56;;;;;;;3.42;1.10;;;22.60;49.90;;;;;;4250610;27;20138;-76
2024/03/19 14:04:58;;;;;;;2.78;1.17;;;23.90;47.70;;;;;;4250613;27;20508;-75
2024/03/19 14:07:03;;;;;;;2.53;1.00;;;24.80;44.20;;;;;;4249646;27;20050;-76
2024/03/19 14:09:05;;;;;;;3.75;1.30;;;25.60;43.30;;;;;;4249577;27;20384;-74
2024/03/19 14:11:07;;;;;;;2.72;1.10;;;27.00;41.90;;;;;;4249481;27;20160;-76
2024/03/19 14:13:09;;;;;;;3.17;1.17;;;28.10;38.60;;;;;;4249526;27;20168;-73
2024/03/19 14:15:11;;;;;;;3.20;1.30;;;29.10;37.80;;;;;;4249331;27;20476;-76
2024/03/19 14:17:13;;;;;;;2.60;1.08;;;30.20;35.80;;;;;;4248217;27;20092;-74
2024/03/19 14:19:15;;;;;;;2.28;1.13;;;30.50;33.70;;;;;;4249277;27;20134;-83
2024/03/19 14:21:17;;;;;;;2.30;1.08;;;31.00;32.60;;;;;;4249230;27;20055;-82
2024/03/19 14:23:20;;;;;;;3.67;1.10;;;31.70;30.70;;;;;;4250184;27;20054;-76
2024/03/19 14:25:21;;;;;;;3.75;1.20;;;32.00;29.40;;;;;;4249467;27;20043;-76
2024/03/19 14:27:23;;;;;;;2.42;1.00;;;31.70;29.50;;;;;;4249215;27;20051;-79
2024/03/19 14:29:26;;;;;;;3.10;0.85;;;31.30;30.00;;;;;;4249495;27;20055;-78
2024/03/19 14:31:28;;;;;;;2.38;0.90;;;31.00;29.60;;;;;;4249526;27;20046;-77
2024/03/19 14:33:31;;;;;;;3.95;1.13;;;30.90;29.60;;;;;;4251288;27;20075;-77
2024/03/19 14:35:32;;;;;;;6.80;1.20;;;31.00;29.20;;;;;;4250738;27;20077;-78
2024/03/19 14:37:34;;;;;;;2.35;0.93;;;30.60;27.80;;;;;;4249343;27;20461;-78
2024/03/19 14:39:38;;;;;;;3.10;1.00;;;30.60;29.30;;;;;;4249435;27;20047;-77
2024/03/19 14:41:39;;;;;;;4.15;1.10;;;30.60;29.00;;;;;;4239117;27;20058;-78
2024/03/19 14:43:45;;;;;;;2.20;0.70;;;31.20;28.70;;;;;;4245256;27;20496;-78
2024/03/19 14:45:46;;;;;;;3.10;1.00;;;31.20;28.30;;;;;;4248783;27;20412;-78
2024/03/19 14:47:47;;;;;;;1.88;0.88;;;31.00;28.00;;;;;;4248678;27;20043;-79
2024/03/19 14:49:48;;;;;;;2.45;0.90;;;30.60;28.10;;;;;;4248705;27;20104;-78
2024/03/19 14:51:50;;;;;;;3.25;1.00;;;30.40;28.50;;;;;;4248569;27;20472;-78
2024/03/19 14:53:52;;;;;;;4.18;1.30;;;30.40;27.80;;;;;;4244736;27;20490;-78
2024/03/19 14:55:55;;;;;;;3.22;1.00;;;31.00;28.00;;;;;;4236203;27;20120;-78
2024/03/19 14:57:57;;;;;;;2.78;1.20;;;31.40;28.40;;;;;;4233001;28;20473;-77
2024/03/19 14:59:58;;;;;;;2.97;1.10;;;32.00;27.50;;;;;;4232179;28;20179;-77
2024/03/19 15:02:00;;;;;;;3.50;1.73;;;32.00;26.50;;;;;;4236772;27;20499;-78
2024/03/19 15:04:01;;;;;;;3.05;1.20;;;31.40;26.80;;;;;;4238291;27;20043;-78
2024/03/19 15:06:03;;;;;;;3.28;1.20;;;31.20;27.50;;;;;;4243025;27;20480;-80
2024/03/19 15:08:06;;;;;;;6.38;1.20;;;31.10;27.90;;;;;;4243049;27;20043;-77
2024/03/19 15:10:08;;;;;;;2.33;1.00;;;30.80;28.60;;;;;;4235381;27;20381;-78
2024/03/19 15:12:12;;;;;;;2.25;0.93;;;30.80;28.70;;;;;;4229090;28;20088;-78
2024/03/19 15:14:15;;;;;;;2.55;0.90;;;30.10;28.60;;;;;;4239281;28;20544;-78
2024/03/19 15:16:16;;;;;;;3.45;1.00;;;29.80;28.90;;;;;;4245814;27;20043;-78
2024/03/19 15:18:18;;;;;;;3.25;1.00;;;29.30;28.80;;;;;;4246226;27;20043;-77
2024/03/19 15:20:20;;;;;;;6.72;2.85;;;29.30;29.80;;;;;;4247755;28;20531;-78
2024/03/19 15:22:22;;;;;;;5.25;2.17;;;29.20;29.70;;;;;;4247088;28;20166;-78
2024/03/19 15:24:24;;;;;;;2.58;1.13;;;28.70;30.40;;;;;;4245230;28;20514;-77
2024/03/19 15:26:26;;;;;;;3.88;1.20;;;28.10;31.30;;;;;;4248051;28;20048;-77
2024/03/19 15:28:28;;;;;;;4.95;1.40;;;27.50;32.50;;;;;;4233311;28;20116;-78
2024/03/19 15:30:30;;;;;;;3.50;1.30;;;26.90;33.20;;;;;;4233280;28;20059;-77
2024/03/19 15:32:32;;;;;;;2.70;1.10;;;26.30;34.40;;;;;;4249007;28;20449;-78
2024/03/19 15:34:33;;;;;;;3.05;0.98;;;25.70;35.60;;;;;;4247107;28;20054;-79
2024/03/19 15:36:36;;;;;;;2.50;1.02;;;25.20;36.80;;;;;;4248221;28;20390;-77
2024/03/19 15:38:38;;;;;;;3.35;1.35;;;25.50;36.60;;;;;;4245023;28;20476;-79
2024/03/19 15:40:40;;;;;;;3.67;1.25;;;25.80;36.10;;;;;;4246501;28;20061;-78
2024/03/19 15:42:42;;;;;;;3.17;1.15;;;26.20;35.80;;;;;;4246233;28;20054;-79
2024/03/19 15:44:44;;;;;;;2.97;1.20;;;26.20;34.40;;;;;;4241564;28;20055;-78
2024/03/19 15:46:46;;;;;;;2.88;1.33;;;26.20;34.20;;;;;;4231583;28;20088;-78
2024/03/19 15:48:48;;;;;;;2.40;1.02;;;26.10;35.50;;;;;;4229481;28;20048;-78
2024/03/19 15:50:51;;;;;;;2.67;0.93;;;26.20;35.30;;;;;;4243462;28;20445;-80
2024/03/19 15:52:53;;;;;;;3.85;1.00;;;26.20;35.60;;;;;;4241981;28;20057;-77
2024/03/19 15:54:54;;;;;;;2.28;1.00;;;26.10;35.30;;;;;;4246137;28;20051;-79
2024/03/19 15:56:56;;;;;;;2.17;1.00;;;25.80;35.00;;;;;;4246717;28;20549;-76
2024/03/19 15:58:57;;;;;;;3.75;1.05;;;25.50;35.70;;;;;;4246355;28;20070;-79
2024/03/19 16:01:01;;;;;;;3.67;1.10;;;25.20;36.30;;;;;;4246948;28;20043;-80
2024/03/19 16:03:04;;;;;;;2.60;1.17;;;25.10;37.30;;;;;;4245766;28;20068;-77
2024/03/19 16:05:06;;;;;;;2.50;1.15;;;25.10;37.80;;;;;;4246011;28;20104;-76
2024/03/19 16:07:08;;;;;;;3.88;1.50;;;25.00;36.70;;;;;;4246453;27;20151;-76
2024/03/19 16:09:10;;;;;;;2.50;1.10;;;24.90;36.90;;;;;;4249276;27;20085;-76
2024/03/19 16:11:14;;;;;;;4.03;1.40;;;24.90;37.10;;;;;;4238192;27;20055;-77
2024/03/19 16:13:16;;;;;;;3.28;1.02;;;24.70;36.50;;;;;;4263978;27;20051;-78
2024/03/19 16:15:18;;;;;;;3.22;1.20;;;24.50;37.20;;;;;;4249834;27;20059;-76
2024/03/19 16:17:22;;;;;;;2.67;0.98;;;24.30;37.30;;;;;;4250691;27;20112;-79
2024/03/19 16:19:23;;;;;;;3.05;1.00;;;23.90;37.50;;;;;;4250229;27;20488;-80
2024/03/19 16:21:25;;;;;;;2.25;1.10;;;23.70;38.60;;;;;;4248918;27;20051;-79
2024/03/19 16:23:26;;;;;;;2.25;0.90;;;23.70;38.60;;;;;;4248897;27;20058;-76
2024/03/19 16:25:28;;;;;;;4.65;1.30;;;23.10;38.90;;;;;;4247917;27;20695;-78
2024/03/19 16:27:30;;;;;;;3.03;1.00;;;22.90;40.00;;;;;;4250207;27;20055;-78
2024/03/19 16:29:34;;;;;;;3.10;1.08;;;23.10;40.60;;;;;;4238684;27;20046;-80
2024/03/19 16:31:35;;;;;;;4.60;1.10;;;23.20;40.00;;;;;;4248888;27;20047;-77
2024/03/19 16:33:39;;;;;;;3.72;1.10;;;23.30;40.30;;;;;;4232581;28;20051;-79
2024/03/19 16:35:40;;;;;;;4.25;1.20;;;23.20;39.60;;;;;;4233430;28;20100;-79
2024/03/19 16:37:43;;;;;;;2.20;1.02;;;23.10;40.10;;;;;;4248674;27;20107;-78
2024/03/19 16:39:44;;;;;;;2.80;1.13;;;23.00;40.50;;;;;;4238043;27;20039;-78
2024/03/19 16:41:46;;;;;;;3.33;1.10;;;23.00;41.30;;;;;;4248084;27;20069;-80
2024/03/19 16:43:48;;;;;;;4.20;1.20;;;22.90;41.30;;;;;;4247706;27;20051;-79
2024/03/19 16:45:49;;;;;;;3.40;1.30;;;22.80;41.00;;;;;;4248623;27;20051;-82